Accueil
METAR-TAF:

METAR-TAF

Aéroports :

Pointe-Noire, Congo

Aéroport international Agostinho-Neto

latitude: 04-49S, longitude: 011-54E, altitude: 17 m

Observation

Le bulletin a été fait il y a 39 minutes, à 04:00 UTC
Vent calme
Température 24°C
Humidité 94%
Pression 1009 hPa
Visibilité: 7000 m
Quelques nuages à une hauteur de 1300 ft

METAR: FCPP 120400Z 00000KT 7000 FEW013 24/23 Q1009 NOSIG

Heure: 05:39 (04:39 UTC)

Prévision

Le bulletin a été fait il y a 5 heures et 39 minutes, à 23:00 UTC
Prévision valable du 12 à 00 UTC au 12 à 24 UTC
Vent 6 kt de sud
Visibilité: 8000 m
Nuages épars à une hauteur de 1200 ft
Nuages fragmentés à une hauteur de 2300 ft
Probabilité 30%
du 12 à 15 UTC au 12 à 19 UTC
Nuages épars à une hauteur de 1300 ft
Quelques nuages à une hauteur de 3000 ft, Cumulonimbus.

TAF: FCPP 112300Z 1200/1224 18006KT 8000 SCT012 BKN023 PROB30 1215/1219 SCT013 FEW030CB

Observations et prévisions météorologiques de plus de 4000 aéroports (messages METAR et TAF).

Les stations disponibles sont représentées par des disques jaunes et rouges sur la carte.

Passer la souris dessus pour voir le nom de la station.

Cliquer dessus pour voir les observations et prévisions météorologiques.

Pour changer de carte: cliquez sur les boutons verts avec une croix noire pour zoomer, sur le bouton vert avec un tiret pour effectuer un zoom arrière, ou sur les flèches vertes pour les cartes adjacentes.


METAR-TAF: